Time;durP1;ratioP1;P1;durP2;ratioP2;P2;SDS_P1;SDS_P2;PMS_P1;PMS_P2;Temp;Humidity;BMP_temperature;BMP_pressure;BME280_temperature;BME280_humidity;BME280_pressure;Samples;Min_cycle;Max_cycle;Signal;HPM_P1;HPM_P2
2022/07/05 00:01:43;;;;;;;0.70;0.20;;;21.80;99.90;;;;;;4937382;29;20448;-70
2022/07/05 00:04:11;;;;;;;0.70;0.20;;;21.80;99.90;;;;;;4937181;29;20523;-69
2022/07/05 00:07:17;;;;;;;0.70;0.10;;;21.80;99.90;;;;;;4948393;29;20760;-69
2022/07/05 00:09:29;;;;;;;0.70;0.10;;;21.80;99.90;;;;;;4956081;29;20467;-72
2022/07/05 00:11:57;;;;;;;0.70;0.20;;;21.80;99.90;;;;;;4956418;29;20493;-70
2022/07/05 00:14:25;;;;;;;0.70;0.10;;;21.80;99.90;;;;;;4956352;29;20545;-70
2022/07/05 00:16:53;;;;;;;0.70;0.20;;;21.80;99.90;;;;;;4955933;29;20458;-70
2022/07/05 00:19:21;;;;;;;0.70;0.10;;;21.80;99.90;;;;;;4956222;29;20485;-70
2022/07/05 00:21:49;;;;;;;0.70;0.20;;;21.80;99.90;;;;;;4955944;29;20455;-70
2022/07/05 00:24:17;;;;;;;0.70;0.17;;;21.70;99.90;;;;;;4937065;29;20447;-70
2022/07/05 00:26:46;;;;;;;0.80;0.20;;;21.80;99.90;;;;;;4936794;29;20452;-70
2022/07/05 00:29:14;;;;;;;1.27;1.17;;;21.70;99.90;;;;;;4954999;29;20471;-71
2022/07/05 00:31:42;;;;;;;0.70;0.10;;;21.70;99.90;;;;;;4955894;29;20509;-70
2022/07/05 00:34:10;;;;;;;0.70;0.10;;;21.60;99.90;;;;;;4955406;29;20933;-70
2022/07/05 00:36:38;;;;;;;0.70;0.20;;;21.60;99.90;;;;;;4951823;29;20471;-71
2022/07/05 00:39:06;;;;;;;0.70;0.13;;;21.70;99.90;;;;;;4936650;29;20475;-70
2022/07/05 00:41:34;;;;;;;1.17;0.77;;;21.60;99.90;;;;;;4944894;29;20474;-70
2022/07/05 00:44:07;;;;;;;0.70;0.10;;;21.60;99.90;;;;;;4954077;28;20457;-70
2022/07/05 00:46:36;;;;;;;0.70;0.10;;;21.60;99.90;;;;;;4953942;29;20533;-70
2022/07/05 00:49:05;;;;;;;0.70;0.20;;;21.60;99.90;;;;;;4954132;29;20467;-69
2022/07/05 00:51:35;;;;;;;0.70;0.20;;;21.50;99.90;;;;;;4942462;29;20483;-71
2022/07/05 00:54:17;;;;;;;0.70;0.20;;;21.50;99.90;;;;;;4936421;29;20455;-70
2022/07/05 00:56:45;;;;;;;0.70;0.10;;;21.50;99.90;;;;;;4936330;29;20469;-70
2022/07/05 00:59:15;;;;;;;0.70;0.20;;;21.50;99.90;;;;;;4936443;29;20472;-69
2022/07/05 01:01:43;;;;;;;0.70;0.10;;;21.40;99.90;;;;;;4936533;29;20444;-70
2022/07/05 01:04:12;;;;;;;0.70;0.10;;;21.40;99.90;;;;;;4937814;29;20454;-70
2022/07/05 01:06:42;;;;;;;0.70;0.10;;;21.40;99.90;;;;;;4955068;29;20455;-69
2022/07/05 01:09:13;;;;;;;0.70;0.10;;;21.30;99.90;;;;;;4955159;29;20463;-70
2022/07/05 01:11:42;;;;;;;0.70;0.20;;;21.30;99.90;;;;;;4954891;29;20479;-71
2022/07/05 01:14:12;;;;;;;0.70;0.20;;;21.30;99.90;;;;;;4955348;29;20451;-71
2022/07/05 01:16:41;;;;;;;0.70;0.10;;;21.30;99.90;;;;;;4954805;29;20454;-71
2022/07/05 01:19:12;;;;;;;0.70;0.10;;;21.30;99.90;;;;;;4944866;29;21018;-71
2022/07/05 01:21:42;;;;;;;0.70;0.20;;;21.30;99.90;;;;;;4938433;28;20512;-71
2022/07/05 01:24:13;;;;;;;0.70;0.20;;;21.30;99.90;;;;;;4951769;28;20501;-71
2022/07/05 01:26:41;;;;;;;0.70;0.10;;;21.30;99.90;;;;;;4954663;29;20833;-71
2022/07/05 01:29:10;;;;;;;0.70;0.20;;;21.20;99.90;;;;;;4937295;29;20486;-71
2022/07/05 01:31:38;;;;;;;0.70;0.10;;;21.20;99.90;;;;;;4935634;29;20484;-71
2022/07/05 01:34:06;;;;;;;0.70;0.20;;;21.20;99.90;;;;;;4951986;29;20469;-71
2022/07/05 01:36:35;;;;;;;0.70;0.10;;;21.20;99.90;;;;;;4954368;29;20461;-71
2022/07/05 01:39:05;;;;;;;0.70;0.20;;;21.10;99.90;;;;;;4954065;29;20486;-71
2022/07/05 01:41:34;;;;;;;0.70;0.10;;;21.10;99.90;;;;;;4954780;29;20657;-70
2022/07/05 01:44:03;;;;;;;0.70;0.20;;;21.10;99.90;;;;;;4952084;29;20463;-71
2022/07/05 01:46:36;;;;;;;0.70;0.10;;;21.00;99.90;;;;;;4953624;29;20459;-71
2022/07/05 01:49:07;;;;;;;0.70;0.10;;;21.00;99.90;;;;;;4954570;29;20521;-72
2022/07/05 01:51:39;;;;;;;0.70;0.20;;;21.00;99.90;;;;;;4953806;29;20965;-70
2022/07/05 01:54:07;;;;;;;0.70;0.20;;;20.90;99.90;;;;;;4954209;29;20439;-70
2022/07/05 01:56:37;;;;;;;0.70;0.10;;;20.90;99.90;;;;;;4953275;28;21044;-69
2022/07/05 01:59:07;;;;;;;0.70;0.10;;;20.90;99.90;;;;;;4954350;29;20843;-69
2022/07/05 02:01:37;;;;;;;0.70;0.10;;;20.90;99.90;;;;;;4942462;29;20645;-70
2022/07/05 02:04:05;;;;;;;0.70;0.20;;;20.90;99.90;;;;;;4935117;29;20448;-71
2022/07/05 02:06:35;;;;;;;0.70;0.10;;;20.90;99.90;;;;;;4934444;29;20467;-71
2022/07/05 02:09:04;;;;;;;0.70;0.10;;;20.90;99.90;;;;;;4934768;29;20468;-71
2022/07/05 02:11:32;;;;;;;0.70;0.20;;;;;;;;;;4935173;29;20958;-71
2022/07/05 02:14:02;;;;;;;0.70;0.20;;;20.90;99.90;;;;;;4934781;29;20450;-70
2022/07/05 02:16:30;;;;;;;0.70;0.20;;;20.80;99.90;;;;;;4953033;29;20451;-70
2022/07/05 02:18:58;;;;;;;0.70;0.10;;;20.80;99.90;;;;;;4974164;23;20491;-68
2022/07/05 02:21:26;;;;;;;0.60;0.10;;;20.80;99.90;;;;;;4954236;29;20453;-70
2022/07/05 02:23:55;;;;;;;0.70;0.10;;;20.80;99.90;;;;;;4954142;29;20447;-68
2022/07/05 02:26:23;;;;;;;0.60;0.10;;;20.70;99.90;;;;;;4964272;28;20830;-70
2022/07/05 02:28:51;;;;;;;0.70;0.10;;;20.70;99.90;;;;;;4958076;28;21080;-70
2022/07/05 02:31:20;;;;;;;0.70;0.17;;;20.80;99.90;;;;;;4954310;29;20546;-68
2022/07/05 02:33:49;;;;;;;0.60;0.10;;;20.70;99.90;;;;;;4953846;28;20550;-67
2022/07/05 02:36:16;;;;;;;0.70;0.10;;;20.70;99.90;;;;;;4954687;28;20455;-70
2022/07/05 02:38:45;;;;;;;0.70;0.20;;;20.70;99.90;;;;;;4954565;29;20830;-69
2022/07/05 02:41:13;;;;;;;0.70;0.20;;;20.70;99.90;;;;;;4954445;29;20457;-69
2022/07/05 02:43:41;;;;;;;0.70;0.20;;;20.70;99.90;;;;;;4954305;29;20443;-69
2022/07/05 02:46:10;;;;;;;0.70;0.20;;;20.60;99.90;;;;;;4956898;29;20466;-69
2022/07/05 02:48:39;;;;;;;0.70;0.10;;;20.50;99.90;;;;;;4959749;28;20528;-69
2022/07/05 02:51:07;;;;;;;0.70;0.10;;;20.50;99.90;;;;;;4976271;28;20446;-70
2022/07/05 02:53:36;;;;;;;0.70;0.10;;;20.50;99.90;;;;;;4974416;28;20546;-69
2022/07/05 02:56:04;;;;;;;0.70;0.10;;;20.40;99.90;;;;;;4973850;28;20508;-69
2022/07/05 02:58:32;;;;;;;0.70;0.10;;;20.30;99.90;;;;;;4975107;28;20477;-70
2022/07/05 03:01:00;;;;;;;0.70;0.10;;;20.30;99.90;;;;;;4974368;28;20446;-68
2022/07/05 03:03:28;;;;;;;0.70;0.10;;;20.20;99.90;;;;;;4963309;28;20498;-70
2022/07/05 03:05:57;;;;;;;0.70;0.10;;;20.20;99.90;;;;;;4953941;29;20482;-70
2022/07/05 03:08:25;;;;;;;0.70;0.10;;;20.10;99.90;;;;;;4956243;28;20835;-70
2022/07/05 03:10:53;;;;;;;0.70;0.20;;;20.10;99.90;;;;;;4958420;29;20502;-67
2022/07/05 03:13:20;;;;;;;0.70;0.20;;;20.10;99.90;;;;;;4958007;29;20807;-70
2022/07/05 03:15:48;;;;;;;0.67;0.10;;;20.10;99.90;;;;;;4957440;29;20447;-69
2022/07/05 03:18:16;;;;;;;0.63;0.20;;;20.00;99.90;;;;;;4973587;28;20482;-68
2022/07/05 03:20:44;;;;;;;0.60;0.10;;;20.00;99.90;;;;;;4977026;28;20450;-69
2022/07/05 03:23:13;;;;;;;0.70;0.20;;;20.00;99.90;;;;;;4977156;28;20461;-68
2022/07/05 03:25:41;;;;;;;0.70;0.20;;;20.00;99.90;;;;;;4976732;28;20445;-67
2022/07/05 03:28:09;;;;;;;0.60;0.20;;;20.00;99.90;;;;;;4966864;28;20788;-68
2022/07/05 03:30:37;;;;;;;0.60;0.20;;;20.00;99.90;;;;;;4957846;28;20450;-69
2022/07/05 03:33:04;;;;;;;0.60;0.20;;;20.00;99.90;;;;;;4938078;29;20484;-69
2022/07/05 03:35:32;;;;;;;0.60;0.10;;;20.10;99.90;;;;;;4937464;29;20648;-68
2022/07/05 03:38:00;;;;;;;0.60;0.10;;;20.10;99.90;;;;;;4937596;29;20470;-68
2022/07/05 03:40:29;;;;;;;0.60;0.10;;;20.10;99.90;;;;;;4937641;29;20451;-68
2022/07/05 03:42:57;;;;;;;0.60;0.10;;;20.10;99.90;;;;;;4937903;29;20448;-69
2022/07/05 03:45:25;;;;;;;0.93;0.80;;;20.20;99.90;;;;;;4956434;28;20925;-68
2022/07/05 03:47:53;;;;;;;0.60;0.10;;;20.20;99.90;;;;;;4975698;28;20497;-69
2022/07/05 03:50:21;;;;;;;0.70;0.20;;;20.20;99.90;;;;;;4976194;28;20454;-71
2022/07/05 03:52:49;;;;;;;0.70;0.20;;;20.20;99.90;;;;;;4976386;28;20485;-69
2022/07/05 03:55:17;;;;;;;0.70;0.13;;;20.20;99.90;;;;;;4976156;28;20777;-70
2022/07/05 03:57:47;;;;;;;0.70;0.13;;;20.30;99.90;;;;;;4975614;28;20450;-70
2022/07/05 04:00:16;;;;;;;0.70;0.10;;;20.30;99.90;;;;;;4960065;28;20469;-70
2022/07/05 04:02:43;;;;;;;0.70;0.10;;;20.40;99.90;;;;;;4956677;29;20941;-70
2022/07/05 04:05:11;;;;;;;0.70;0.10;;;20.50;99.90;;;;;;4957234;29;20473;-70
2022/07/05 04:07:49;;;;;;;0.63;0.10;;;20.40;99.90;;;;;;4957817;29;20446;-69
2022/07/05 04:10:17;;;;;;;0.70;0.20;;;20.40;99.90;;;;;;4957598;29;20814;-69
2022/07/05 04:12:47;;;;;;;0.70;0.10;;;20.40;99.90;;;;;;4960184;28;20545;-69
2022/07/05 04:15:15;;;;;;;0.70;0.10;;;20.30;99.90;;;;;;4975777;28;20832;-67
2022/07/05 04:17:48;;;;;;;0.70;0.20;;;20.40;99.90;;;;;;4975524;28;20440;-69
2022/07/05 04:20:16;;;;;;;0.60;0.23;;;20.40;99.90;;;;;;4956928;28;20513;-69
2022/07/05 04:22:43;;;;;;;0.70;0.10;;;20.30;99.90;;;;;;4956559;29;20451;-69
2022/07/05 04:25:17;;;;;;;0.70;0.10;;;20.30;99.90;;;;;;4956112;29;20509;-69
2022/07/05 04:27:48;;;;;;;0.70;0.10;;;20.30;99.90;;;;;;4960354;28;20942;-69
2022/07/05 04:30:18;;;;;;;0.70;0.10;;;20.40;99.90;;;;;;4955041;29;20454;-69
2022/07/05 04:32:46;;;;;;;0.70;0.20;;;20.40;99.90;;;;;;4954943;28;20454;-69
2022/07/05 04:35:16;;;;;;;0.60;0.10;;;20.40;99.90;;;;;;4955261;29;20447;-70
2022/07/05 04:37:45;;;;;;;0.60;0.10;;;20.40;99.90;;;;;;4955595;29;20462;-69
2022/07/05 04:40:14;;;;;;;0.70;0.20;;;20.20;99.90;;;;;;4974810;28;20460;-69
2022/07/05 04:42:42;;;;;;;0.63;0.10;;;20.50;99.90;;;;;;4975343;28;20446;-69
2022/07/05 04:45:12;;;;;;;0.60;0.10;;;20.50;99.90;;;;;;4974945;28;20446;-69
2022/07/05 04:47:40;;;;;;;0.70;0.10;;;20.50;99.90;;;;;;4974796;28;20456;-69
2022/07/05 04:50:09;;;;;;;0.70;0.10;;;20.50;99.90;;;;;;4975476;28;20450;-70
2022/07/05 04:52:37;;;;;;;0.67;0.10;;;20.60;99.90;;;;;;4968598;28;20459;-70
2022/07/05 04:55:05;;;;;;;0.70;0.20;;;20.70;99.90;;;;;;4955538;29;20570;-69
2022/07/05 04:57:38;;;;;;;0.70;0.20;;;20.70;99.90;;;;;;4955282;29;20583;-70
2022/07/05 05:00:08;;;;;;;0.70;0.20;;;20.70;99.90;;;;;;4955730;29;20451;-70
2022/07/05 05:02:37;;;;;;;0.70;0.10;;;20.70;99.90;;;;;;4955549;29;20551;-69
2022/07/05 05:05:06;;;;;;;0.60;0.10;;;20.70;99.90;;;;;;4955278;28;20482;-70
2022/07/05 05:07:34;;;;;;;0.70;0.40;;;20.60;99.90;;;;;;4974191;28;21036;-69
2022/07/05 05:10:05;;;;;;;0.70;0.20;;;20.60;99.90;;;;;;4974132;28;20537;-70
2022/07/05 05:12:34;;;;;;;0.70;0.10;;;;;;;;;;4960315;28;20443;-70
2022/07/05 05:15:02;;;;;;;0.63;0.20;;;20.60;99.90;;;;;;4951038;28;20498;-69
2022/07/05 05:17:37;;;;;;;0.63;0.10;;;20.50;99.90;;;;;;4952842;29;20462;-65
2022/07/05 05:20:08;;;;;;;0.70;0.13;;;20.50;99.90;;;;;;4952661;28;20968;-68
2022/07/05 05:22:35;;;;;;;0.70;0.20;;;20.50;99.90;;;;;;4952610;29;21045;-69
2022/07/05 05:25:04;;;;;;;0.67;0.10;;;20.50;99.90;;;;;;4954280;29;20935;-69
2022/07/05 05:27:32;;;;;;;0.60;0.10;;;20.50;99.90;;;;;;4954176;29;20445;-68
2022/07/05 05:30:00;;;;;;;0.63;0.10;;;20.50;99.90;;;;;;4954460;28;20475;-69
2022/07/05 05:32:28;;;;;;;0.70;0.20;;;20.50;99.90;;;;;;4954919;29;20542;-69
2022/07/05 05:34:57;;;;;;;0.60;0.10;;;20.60;99.90;;;;;;4968793;28;20488;-68
2022/07/05 05:37:25;;;;;;;0.70;0.20;;;20.60;99.90;;;;;;4974263;28;20446;-66
2022/07/05 05:39:54;;;;;;;0.70;0.13;;;20.60;99.90;;;;;;4983491;28;20489;-67
2022/07/05 05:42:22;;;;;;;0.70;0.20;;;20.70;99.90;;;;;;4965580;28;20526;-68
2022/07/05 05:44:50;;;;;;;0.70;0.10;;;20.70;99.90;;;;;;4952421;29;20448;-69
2022/07/05 05:47:17;;;;;;;0.67;0.13;;;20.70;99.90;;;;;;4954344;28;20526;-68
2022/07/05 05:49:45;;;;;;;0.60;0.10;;;20.80;99.90;;;;;;4947632;28;20468;-74
2022/07/05 05:52:15;;;;;;;0.60;0.20;;;20.90;99.90;;;;;;4955316;29;20506;-73
2022/07/05 05:54:43;;;;;;;0.67;0.10;;;21.00;99.90;;;;;;4956997;29;20606;-72
2022/07/05 05:57:11;;;;;;;0.70;0.20;;;21.00;99.90;;;;;;4955711;29;20543;-72
2022/07/05 05:59:39;;;;;;;0.67;0.10;;;21.10;99.90;;;;;;4955467;29;20503;-73
2022/07/05 06:02:07;;;;;;;0.70;0.20;;;21.20;99.90;;;;;;4961707;28;20797;-67
2022/07/05 06:04:35;;;;;;;0.70;0.10;;;22.80;99.90;;;;;;4959478;28;20521;-67
2022/07/05 06:07:03;;;;;;;0.70;0.10;;;21.30;99.90;;;;;;4949430;29;20519;-67
2022/07/05 06:09:35;;;;;;;0.70;0.10;;;21.40;99.90;;;;;;4947043;28;20488;-68
2022/07/05 06:12:03;;;;;;;0.70;0.20;;;21.40;99.90;;;;;;4949538;29;20502;-69
2022/07/05 06:14:31;;;;;;;0.70;0.20;;;21.50;99.90;;;;;;4954022;29;20945;-71
2022/07/05 06:16:59;;;;;;;0.70;0.10;;;21.50;99.90;;;;;;4954132;29;20462;-69
2022/07/05 06:19:27;;;;;;;0.70;0.20;;;21.50;99.90;;;;;;4960024;28;20494;-68
2022/07/05 06:21:55;;;;;;;0.70;0.20;;;21.50;99.90;;;;;;4969617;28;20949;-69
2022/07/05 06:24:27;;;;;;;0.70;0.20;;;21.50;99.90;;;;;;4948180;28;20528;-69
2022/07/05 06:26:56;;;;;;;0.70;0.20;;;21.60;99.90;;;;;;4953643;29;20200;-71
2022/07/05 06:29:24;;;;;;;0.70;0.10;;;21.60;99.90;;;;;;4951655;28;20577;-71
2022/07/05 06:31:52;;;;;;;0.70;0.10;;;21.50;99.90;;;;;;4953035;29;20458;-70
2022/07/05 06:34:20;;;;;;;0.70;0.10;;;21.50;99.90;;;;;;4953144;29;20497;-70
2022/07/05 06:36:48;;;;;;;0.70;0.20;;;21.50;99.90;;;;;;4953422;28;20827;-71
2022/07/05 06:39:16;;;;;;;0.70;0.10;;;21.60;99.90;;;;;;4954046;29;20491;-70
2022/07/05 06:41:44;;;;;;;0.70;0.20;;;21.60;99.90;;;;;;4953627;28;20538;-70
2022/07/05 06:44:13;;;;;;;0.70;0.10;;;21.60;99.90;;;;;;4960334;28;20457;-71
2022/07/05 06:47:01;;;;;;;0.70;0.17;;;21.70;99.90;;;;;;4972442;28;20851;-69
2022/07/05 06:49:29;;;;;;;0.70;0.10;;;21.70;99.90;;;;;;4972514;28;20969;-70
2022/07/05 06:51:57;;;;;;;5.03;2.57;;;21.70;99.90;;;;;;4972816;28;20449;-71
2022/07/05 06:54:25;;;;;;;0.70;0.10;;;21.80;99.90;;;;;;4973048;28;20491;-70
2022/07/05 06:57:13;;;;;;;0.70;0.20;;;21.80;99.90;;;;;;4972674;28;20654;-71
2022/07/05 07:00:00;;;;;;;0.70;0.10;;;21.80;99.90;;;;;;4971277;28;20471;-72
2022/07/05 07:02:29;;;;;;;0.70;0.20;;;21.80;99.90;;;;;;4953972;29;20510;-71
2022/07/05 07:04:57;;;;;;;0.70;0.10;;;21.90;99.90;;;;;;4953772;29;20450;-70
2022/07/05 07:10:27;;;;;;;0.70;0.10;;;22.00;99.90;;;;;;4954594;29;20545;-71
2022/07/05 07:12:57;;;;;;;0.70;0.20;;;22.10;99.90;;;;;;4954108;29;20493;-72
2022/07/05 07:15:27;;;;;;;0.70;0.10;;;22.20;99.90;;;;;;4953322;29;20479;-70
2022/07/05 07:17:55;;;;;;;0.70;0.20;;;22.30;99.90;;;;;;4954372;28;20475;-71
2022/07/05 07:20:22;;;;;;;0.70;0.10;;;22.30;99.90;;;;;;4953566;28;20451;-70
2022/07/05 07:22:51;;;;;;;0.70;0.20;;;22.40;99.90;;;;;;4953972;29;20457;-70
2022/07/05 07:25:20;;;;;;;0.70;0.10;;;22.40;99.90;;;;;;4964232;28;20537;-70
2022/07/05 07:27:49;;;;;;;0.70;0.20;;;22.50;99.90;;;;;;4964919;28;20502;-70
2022/07/05 07:30:20;;;;;;;0.70;0.20;;;22.50;99.90;;;;;;4952996;29;20447;-70
2022/07/05 07:32:49;;;;;;;0.70;0.20;;;22.50;99.90;;;;;;4954299;28;20451;-72
2022/07/05 07:35:17;;;;;;;0.70;0.20;;;22.50;99.90;;;;;;4953355;28;20474;-69
2022/07/05 07:37:45;;;;;;;0.70;0.10;;;22.60;99.90;;;;;;4953123;29;20463;-69
2022/07/05 07:40:13;;;;;;;0.70;0.20;;;22.60;99.90;;;;;;4953390;29;20453;-71
2022/07/05 07:42:42;;;;;;;0.70;0.10;;;22.70;99.90;;;;;;4953437;29;20545;-71
2022/07/05 07:45:11;;;;;;;0.70;0.20;;;22.80;99.90;;;;;;4954913;28;20450;-71
2022/07/05 07:47:39;;;;;;;0.70;0.20;;;22.90;99.90;;;;;;4952302;29;20535;-71
2022/07/05 07:50:09;;;;;;;0.70;0.10;;;22.90;99.90;;;;;;4960684;28;20454;-70
2022/07/05 07:52:38;;;;;;;0.70;0.10;;;23.00;99.90;;;;;;4972766;28;20849;-71
2022/07/05 07:55:07;;;;;;;0.70;0.20;;;23.10;99.90;;;;;;4974154;28;20556;-70
2022/07/05 07:57:35;;;;;;;0.70;0.10;;;23.10;99.90;;;;;;4974926;28;20917;-69
2022/07/05 08:00:05;;;;;;;0.70;0.20;;;23.10;99.90;;;;;;4975437;28;20994;-70
2022/07/05 08:02:33;;;;;;;0.70;0.10;;;23.20;99.90;;;;;;4976159;28;20529;-71
2022/07/05 08:05:01;;;;;;;0.70;0.10;;;23.30;99.90;;;;;;4938389;28;20534;-73
2022/07/05 08:07:31;;;;;;;0.70;0.10;;;23.30;99.90;;;;;;4963347;28;20447;-71
2022/07/05 08:09:59;;;;;;;0.70;0.20;;;23.40;99.90;;;;;;4965224;28;20503;-70
2022/07/05 08:12:27;;;;;;;0.70;0.13;;;23.50;99.90;;;;;;4959160;28;20892;-74
2022/07/05 08:14:55;;;;;;;0.70;0.20;;;23.50;99.90;;;;;;4953200;28;20489;-71
2022/07/05 08:17:23;;;;;;;0.70;0.10;;;23.60;99.90;;;;;;4952443;29;20443;-73
2022/07/05 08:22:38;;;;;;;0.70;0.20;;;23.70;99.90;;;;;;4953736;29;20542;-71
2022/07/05 08:25:06;;;;;;;0.70;0.10;;;23.80;99.90;;;;;;4955037;28;20470;-71
2022/07/05 08:27:34;;;;;;;0.70;0.20;;;23.90;99.90;;;;;;4951285;28;21186;-71
2022/07/05 08:30:02;;;;;;;0.70;0.20;;;23.90;99.90;;;;;;4952829;29;20455;-71
2022/07/05 08:32:30;;;;;;;0.70;0.10;;;23.90;99.90;;;;;;4956540;29;20545;-70
2022/07/05 08:34:58;;;;;;;0.70;0.10;;;24.00;99.90;;;;;;4956288;28;20542;-71
2022/07/05 08:37:26;;;;;;;0.70;0.20;;;24.10;99.90;;;;;;4938499;29;20459;-71
2022/07/05 08:39:55;;;;;;;0.70;0.10;;;24.10;99.90;;;;;;4971137;28;20545;-70
2022/07/05 08:42:24;;;;;;;1.07;0.97;;;24.20;99.90;;;;;;4957601;28;20539;-71
2022/07/05 08:44:52;;;;;;;0.70;0.10;;;24.20;99.90;;;;;;4956016;29;20455;-71
2022/07/05 08:47:21;;;;;;;0.70;0.10;;;24.20;99.90;;;;;;4955513;29;20486;-70
2022/07/05 08:49:50;;;;;;;0.70;0.20;;;24.20;99.90;;;;;;4961758;28;20478;-70
2022/07/05 08:52:19;;;;;;;0.97;0.43;;;24.30;99.90;;;;;;4959066;28;20442;-70
2022/07/05 08:54:51;;;;;;;0.70;0.20;;;24.40;99.90;;;;;;4975007;28;21000;-69
2022/07/05 08:57:21;;;;;;;0.70;0.10;;;24.30;99.90;;;;;;4973318;28;20629;-71
2022/07/05 08:59:48;;;;;;;0.70;0.10;;;24.40;99.90;;;;;;4956033;29;20490;-71
2022/07/05 09:02:18;;;;;;;0.70;0.10;;;24.40;99.90;;;;;;4955699;29;20443;-71
2022/07/05 09:04:46;;;;;;;0.70;0.20;;;24.50;99.90;;;;;;4954861;28;20443;-70
2022/07/05 09:07:17;;;;;;;0.70;0.10;;;24.60;99.90;;;;;;4963140;28;20504;-71
2022/07/05 09:09:50;;;;;;;0.70;0.17;;;24.80;99.90;;;;;;4955350;29;20467;-69
2022/07/05 09:12:18;;;;;;;0.70;0.30;;;24.90;99.90;;;;;;4955327;29;20493;-70
2022/07/05 09:14:51;;;;;;;0.70;0.10;;;24.80;99.90;;;;;;4954717;28;20440;-70
2022/07/05 09:17:19;;;;;;;0.70;0.17;;;24.60;99.90;;;;;;4969878;28;20470;-72
2022/07/05 09:20:06;;;;;;;0.70;0.20;;;24.80;99.90;;;;;;4957250;28;20554;-69
2022/07/05 09:22:43;;;;;;;0.70;0.10;;;24.80;99.90;;;;;;4938512;28;20448;-71
2022/07/05 09:25:17;;;;;;;0.70;0.20;;;24.90;99.90;;;;;;4973974;28;20529;-70
2022/07/05 09:27:52;;;;;;;0.70;0.20;;;25.00;99.90;;;;;;4963834;28;20498;-71
2022/07/05 09:30:28;;;;;;;1.17;0.40;;;25.00;99.90;;;;;;4946997;29;20478;-71
2022/07/05 09:33:08;;;;;;;0.70;0.20;;;24.80;99.90;;;;;;4955852;28;20434;-71
2022/07/05 09:35:37;;;;;;;0.70;0.10;;;24.50;99.90;;;;;;4954727;29;20481;-69
2022/07/05 09:38:06;;;;;;;1.57;0.50;;;24.50;99.90;;;;;;4954203;29;20882;-70
2022/07/05 09:40:47;;;;;;;0.70;0.20;;;24.50;99.90;;;;;;4955301;28;20922;-70
2022/07/05 09:43:16;;;;;;;0.70;0.20;;;24.70;99.90;;;;;;4954854;29;20563;-71
2022/07/05 09:45:57;;;;;;;0.70;0.20;;;24.80;99.90;;;;;;4955279;29;20534;-71
2022/07/05 09:48:26;;;;;;;0.70;0.10;;;25.20;99.90;;;;;;4954255;29;20550;-71
2022/07/05 09:51:07;;;;;;;0.70;0.10;;;25.30;99.90;;;;;;4954865;29;20493;-69
2022/07/05 09:53:57;;;;;;;0.70;0.10;;;25.40;99.90;;;;;;4954140;29;20458;-70
2022/07/05 09:56:29;;;;;;;0.70;0.30;;;25.30;99.90;;;;;;4961728;28;20784;-70
2022/07/05 09:59:14;;;;;;;0.70;0.10;;;25.30;99.90;;;;;;4955130;28;20519;-70
2022/07/05 10:01:43;;;;;;;0.70;0.20;;;25.30;99.90;;;;;;4954671;29;20859;-69
2022/07/05 10:04:12;;;;;;;0.70;0.20;;;25.50;99.90;;;;;;4953972;29;20461;-71
2022/07/05 10:06:40;;;;;;;0.70;0.10;;;25.50;99.90;;;;;;4953361;29;20451;-70
2022/07/05 10:09:10;;;;;;;0.70;0.20;;;25.60;99.90;;;;;;4953963;29;20562;-70
2022/07/05 10:11:41;;;;;;;0.70;0.10;;;25.50;99.90;;;;;;4954903;28;20439;-70
2022/07/05 10:14:15;;;;;;;0.70;0.10;;;25.40;99.90;;;;;;4973579;28;20521;-70
2022/07/05 10:16:46;;;;;;;0.70;0.20;;;25.40;99.90;;;;;;4969850;28;20552;-71
2022/07/05 10:19:17;;;;;;;0.70;0.20;;;;;;;;;;4953999;29;20505;-70
2022/07/05 10:21:46;;;;;;;0.70;0.20;;;25.80;99.90;;;;;;4954722;29;20490;-71
2022/07/05 10:24:36;;;;;;;0.70;0.13;;;25.80;99.90;;;;;;4953914;29;20447;-69
2022/07/05 10:27:08;;;;;;;0.70;0.10;;;25.80;99.90;;;;;;4953835;29;20463;-70
2022/07/05 10:29:37;;;;;;;0.70;0.20;;;25.80;99.90;;;;;;4949966;28;20534;-70
2022/07/05 10:32:10;;;;;;;0.70;0.20;;;25.90;99.90;;;;;;4953575;29;20447;-69
2022/07/05 10:34:39;;;;;;;0.70;0.30;;;25.90;99.90;;;;;;4953486;29;20779;-70
2022/07/05 10:37:27;;;;;;;0.70;0.10;;;26.00;99.90;;;;;;4953299;29;20487;-71
2022/07/05 10:39:57;;;;;;;0.70;0.10;;;26.10;99.90;;;;;;4954476;29;20467;-71
2022/07/05 10:42:27;;;;;;;0.70;0.20;;;26.10;99.90;;;;;;4954556;28;20538;-70
2022/07/05 10:44:55;;;;;;;0.70;0.20;;;26.00;99.90;;;;;;4954287;28;20446;-71
2022/07/05 10:47:25;;;;;;;0.70;0.20;;;26.00;99.90;;;;;;4972236;28;20446;-71
2022/07/05 10:50:07;;;;;;;0.70;0.10;;;26.20;99.90;;;;;;4969343;28;20475;-71
2022/07/05 10:52:35;;;;;;;0.70;0.20;;;26.20;99.90;;;;;;4952823;29;20447;-70
2022/07/05 10:55:23;;;;;;;0.70;0.20;;;26.30;99.90;;;;;;4952139;29;20447;-71
2022/07/05 10:58:20;;;;;;;0.70;0.20;;;26.40;99.90;;;;;;4951920;29;21057;-70
2022/07/05 11:00:49;;;;;;;0.70;0.20;;;26.50;99.90;;;;;;4953694;29;20447;-70
2022/07/05 11:03:35;;;;;;;0.70;0.30;;;26.50;99.90;;;;;;4954905;28;20462;-71
2022/07/05 11:06:04;;;;;;;0.70;0.20;;;26.70;99.90;;;;;;4953805;29;20462;-70
2022/07/05 11:08:52;;;;;;;0.70;0.20;;;26.70;99.90;;;;;;4960354;28;20457;-71
2022/07/05 11:11:25;;;;;;;0.70;0.10;;;26.80;99.90;;;;;;4954441;28;20494;-71
2022/07/05 11:13:54;;;;;;;0.70;0.10;;;26.90;99.90;;;;;;4958910;28;20565;-71
2022/07/05 11:16:23;;;;;;;0.70;0.10;;;26.90;99.90;;;;;;4962835;28;20450;-72
2022/07/05 11:18:54;;;;;;;0.70;0.20;;;26.30;99.90;;;;;;4959551;28;20544;-71
2022/07/05 11:21:23;;;;;;;0.70;0.10;;;27.20;99.90;;;;;;4956918;28;20894;-71
2022/07/05 11:24:11;;;;;;;0.70;0.10;;;27.20;99.90;;;;;;4963069;28;20450;-71
2022/07/05 11:26:40;;;;;;;0.70;0.10;;;27.30;99.90;;;;;;4963066;28;20530;-73
2022/07/05 11:29:40;;;;;;;0.70;0.10;;;27.30;99.90;;;;;;4968580;28;20557;-71
2022/07/05 11:32:10;;;;;;;0.70;0.10;;;27.20;99.90;;;;;;4967546;28;20886;-71
2022/07/05 11:34:39;;;;;;;0.70;0.20;;;27.20;99.90;;;;;;4964701;28;20442;-71
2022/07/05 11:37:23;;;;;;;0.70;0.10;;;27.30;99.90;;;;;;4972797;28;20478;-71
2022/07/05 11:40:29;;;;;;;0.70;0.10;;;27.40;99.90;;;;;;4965604;28;20487;-72
2022/07/05 11:42:57;;;;;;;0.70;0.10;;;27.40;99.90;;;;;;4962811;28;20521;-71
2022/07/05 11:45:25;;;;;;;0.70;0.20;;;27.30;99.90;;;;;;4967235;28;20462;-70
2022/07/05 11:47:56;;;;;;;0.70;0.20;;;27.40;99.90;;;;;;4965843;28;20467;-70
2022/07/05 11:50:34;;;;;;;0.70;0.10;;;27.40;99.90;;;;;;4968153;28;20506;-70
2022/07/05 11:53:03;;;;;;;0.70;0.20;;;27.50;99.90;;;;;;4965446;28;20430;-71
2022/07/05 11:55:32;;;;;;;0.70;0.20;;;27.20;99.90;;;;;;4964398;28;20442;-72
2022/07/05 11:58:00;;;;;;;0.70;0.20;;;27.00;99.90;;;;;;4966492;28;20504;-69
2022/07/05 12:00:32;;;;;;;0.70;0.10;;;27.00;99.90;;;;;;4968770;28;20453;-71
2022/07/05 12:03:00;;;;;;;0.70;0.10;;;27.10;99.90;;;;;;4976028;28;20472;-71
2022/07/05 12:05:33;;;;;;;0.90;0.53;;;26.90;99.90;;;;;;4976208;28;20967;-69
2022/07/05 12:08:09;;;;;;;0.93;0.50;;;26.90;99.90;;;;;;4975894;28;20517;-70
2022/07/05 12:13:44;;;;;;;0.70;0.10;;;26.80;99.90;;;;;;4976378;28;20783;-71
2022/07/05 12:16:12;;;;;;;0.70;0.10;;;26.60;99.90;;;;;;4959048;28;20501;-68
2022/07/05 12:18:48;;;;;;;0.70;0.20;;;26.60;99.90;;;;;;4956815;29;20571;-70
2022/07/05 12:21:20;;;;;;;0.70;0.10;;;26.50;99.90;;;;;;4937609;29;20950;-71
2022/07/05 12:23:48;;;;;;;0.70;0.17;;;26.60;99.90;;;;;;4937877;29;20826;-70
2022/07/05 12:26:17;;;;;;;0.70;0.10;;;26.80;99.90;;;;;;4936428;28;20947;-70
2022/07/05 12:28:46;;;;;;;0.70;0.20;;;27.00;99.90;;;;;;4953671;29;20474;-70
2022/07/05 12:31:21;;;;;;;0.70;0.10;;;27.10;99.90;;;;;;4956269;29;20447;-69
2022/07/05 12:33:50;;;;;;;0.70;0.20;;;27.20;99.90;;;;;;4956781;29;20495;-70
2022/07/05 12:36:23;;;;;;;0.73;0.33;;;27.40;99.90;;;;;;4965878;28;20454;-71
2022/07/05 12:38:51;;;;;;;0.70;0.10;;;27.40;99.90;;;;;;4975002;28;20496;-70
2022/07/05 12:41:23;;;;;;;0.70;0.10;;;27.40;99.90;;;;;;4970868;28;20443;-70
2022/07/05 12:43:53;;;;;;;0.70;0.13;;;27.40;99.90;;;;;;4955473;29;20451;-71
2022/07/05 12:46:35;;;;;;;0.80;0.47;;;27.50;99.90;;;;;;4955552;29;20530;-70
2022/07/05 12:49:11;;;;;;;0.70;0.10;;;27.50;99.90;;;;;;4955649;29;20494;-71
2022/07/05 12:51:42;;;;;;;0.70;0.10;;;27.50;99.90;;;;;;4956718;28;20447;-71
2022/07/05 13:00:00;;;;;;;0.70;0.17;;;27.70;99.90;;;;;;4954234;29;20463;-70
2022/07/05 13:02:35;;;;;;;0.70;0.10;;;27.70;99.90;;;;;;4956274;29;20918;-71
2022/07/05 13:05:04;;;;;;;0.70;0.20;;;27.60;99.90;;;;;;4960426;28;20442;-71
2022/07/05 13:07:34;;;;;;;0.80;0.30;;;;;;;;;;4960074;28;20434;-72
2022/07/05 13:10:17;;;;;;;0.70;0.20;;;27.60;99.90;;;;;;4971122;28;20489;-71
2022/07/05 13:12:46;;;;;;;0.70;0.20;;;27.80;99.90;;;;;;4971620;28;20510;-71
2022/07/05 13:15:14;;;;;;;0.70;0.10;;;28.00;99.90;;;;;;4965127;28;20521;-71
2022/07/05 13:17:42;;;;;;;0.70;0.10;;;28.30;99.90;;;;;;4961655;28;20542;-72
2022/07/05 13:20:11;;;;;;;0.70;0.20;;;28.20;99.90;;;;;;4966003;28;20455;-73